sensor_id;sensor_type;location;lat;lon;timestamp;temperature;humidity
22112;DHT22;11222;50.872;4.312;2024-02-26T00:01:53;7.10;99.90
22112;DHT22;11222;50.872;4.312;2024-02-26T00:04:18;7.10;99.90
22112;DHT22;11222;50.872;4.312;2024-02-26T00:06:44;7.10;99.90
22112;DHT22;11222;50.872;4.312;2024-02-26T00:09:09;7.00;99.90
22112;DHT22;11222;50.872;4.312;2024-02-26T00:11:35;7.00;99.90
22112;DHT22;11222;50.872;4.312;2024-02-26T00:14:01;7.00;99.90
22112;DHT22;11222;50.872;4.312;2024-02-26T00:16:26;7.00;99.90
22112;DHT22;11222;50.872;4.312;2024-02-26T00:18:52;6.90;99.90
22112;DHT22;11222;50.872;4.312;2024-02-26T00:21:17;6.90;99.90
22112;DHT22;11222;50.872;4.312;2024-02-26T00:23:43;6.90;99.90
22112;DHT22;11222;50.872;4.312;2024-02-26T00:26:08;6.90;99.90
22112;DHT22;11222;50.872;4.312;2024-02-26T00:28:36;6.90;99.90
22112;DHT22;11222;50.872;4.312;2024-02-26T00:31:01;6.90;99.90
22112;DHT22;11222;50.872;4.312;2024-02-26T00:33:28;6.90;99.90
22112;DHT22;11222;50.872;4.312;2024-02-26T00:35:53;6.80;99.90
22112;DHT22;11222;50.872;4.312;2024-02-26T00:38:19;6.80;99.90
22112;DHT22;11222;50.872;4.312;2024-02-26T00:40:44;6.80;99.90
22112;DHT22;11222;50.872;4.312;2024-02-26T00:43:10;6.80;99.90
22112;DHT22;11222;50.872;4.312;2024-02-26T00:45:35;6.80;99.90
22112;DHT22;11222;50.872;4.312;2024-02-26T00:48:01;6.80;99.90
22112;DHT22;11222;50.872;4.312;2024-02-26T00:50:30;6.70;99.90
22112;DHT22;11222;50.872;4.312;2024-02-26T00:52:55;6.70;99.90
22112;DHT22;11222;50.872;4.312;2024-02-26T00:55:21;6.70;99.90
22112;DHT22;11222;50.872;4.312;2024-02-26T00:57:46;6.70;99.90
22112;DHT22;11222;50.872;4.312;2024-02-26T01:00:12;6.70;99.90
22112;DHT22;11222;50.872;4.312;2024-02-26T01:02:38;6.70;99.90
22112;DHT22;11222;50.872;4.312;2024-02-26T01:05:05;6.70;99.90
22112;DHT22;11222;50.872;4.312;2024-02-26T01:07:31;6.70;99.90
22112;DHT22;11222;50.872;4.312;2024-02-26T01:10:04;6.70;99.90
22112;DHT22;11222;50.872;4.312;2024-02-26T01:12:31;6.70;99.90
22112;DHT22;11222;50.872;4.312;2024-02-26T01:14:56;6.70;99.90
22112;DHT22;11222;50.872;4.312;2024-02-26T01:17:22;6.60;99.90
22112;DHT22;11222;50.872;4.312;2024-02-26T01:19:47;6.60;99.90
22112;DHT22;11222;50.872;4.312;2024-02-26T01:22:13;6.60;99.90
22112;DHT22;11222;50.872;4.312;2024-02-26T01:24:38;6.60;99.90
22112;DHT22;11222;50.872;4.312;2024-02-26T01:27:04;6.60;99.90
22112;DHT22;11222;50.872;4.312;2024-02-26T01:29:29;6.60;99.90
22112;DHT22;11222;50.872;4.312;2024-02-26T01:31:56;6.60;99.90
22112;DHT22;11222;50.872;4.312;2024-02-26T01:34:21;6.50;99.90
22112;DHT22;11222;50.872;4.312;2024-02-26T01:36:47;6.50;99.90
22112;DHT22;11222;50.872;4.312;2024-02-26T01:39:13;6.60;99.90
22112;DHT22;11222;50.872;4.312;2024-02-26T01:41:38;6.50;99.90
22112;DHT22;11222;50.872;4.312;2024-02-26T01:44:04;6.50;99.90
22112;DHT22;11222;50.872;4.312;2024-02-26T01:46:30;6.50;99.90
22112;DHT22;11222;50.872;4.312;2024-02-26T01:48:56;6.60;99.90
22112;DHT22;11222;50.872;4.312;2024-02-26T01:51:22;6.50;99.90
22112;DHT22;11222;50.872;4.312;2024-02-26T01:53:48;6.50;99.90
22112;DHT22;11222;50.872;4.312;2024-02-26T01:56:13;6.50;99.90
22112;DHT22;11222;50.872;4.312;2024-02-26T01:58:40;6.50;99.90
22112;DHT22;11222;50.872;4.312;2024-02-26T02:01:06;6.50;99.90
22112;DHT22;11222;50.872;4.312;2024-02-26T02:03:31;6.50;99.90
22112;DHT22;11222;50.872;4.312;2024-02-26T02:05:57;6.50;99.90
22112;DHT22;11222;50.872;4.312;2024-02-26T02:08:22;6.40;99.90
22112;DHT22;11222;50.872;4.312;2024-02-26T02:10:48;6.40;99.90
22112;DHT22;11222;50.872;4.312;2024-02-26T02:13:14;6.40;99.90
22112;DHT22;11222;50.872;4.312;2024-02-26T02:15:40;6.40;99.90
22112;DHT22;11222;50.872;4.312;2024-02-26T02:18:05;6.40;99.90
22112;DHT22;11222;50.872;4.312;2024-02-26T02:20:32;6.40;99.90
22112;DHT22;11222;50.872;4.312;2024-02-26T02:22:58;6.40;99.90
22112;DHT22;11222;50.872;4.312;2024-02-26T02:25:23;6.40;99.90
22112;DHT22;11222;50.872;4.312;2024-02-26T02:27:49;6.40;99.90
22112;DHT22;11222;50.872;4.312;2024-02-26T02:30:16;6.40;99.90
22112;DHT22;11222;50.872;4.312;2024-02-26T02:32:41;6.40;99.90
22112;DHT22;11222;50.872;4.312;2024-02-26T02:35:07;6.40;99.90
22112;DHT22;11222;50.872;4.312;2024-02-26T02:37:33;6.40;99.90
22112;DHT22;11222;50.872;4.312;2024-02-26T02:39:59;6.40;99.90
22112;DHT22;11222;50.872;4.312;2024-02-26T02:42:25;6.40;99.90
22112;DHT22;11222;50.872;4.312;2024-02-26T02:44:51;6.40;99.90
22112;DHT22;11222;50.872;4.312;2024-02-26T02:47:16;6.40;99.90
22112;DHT22;11222;50.872;4.312;2024-02-26T02:49:42;6.30;99.90
22112;DHT22;11222;50.872;4.312;2024-02-26T02:52:07;6.30;99.90
22112;DHT22;11222;50.872;4.312;2024-02-26T02:54:33;6.30;99.90
22112;DHT22;11222;50.872;4.312;2024-02-26T02:56:58;6.30;99.90
22112;DHT22;11222;50.872;4.312;2024-02-26T02:59:24;6.30;99.90
22112;DHT22;11222;50.872;4.312;2024-02-26T03:01:50;6.30;99.90
22112;DHT22;11222;50.872;4.312;2024-02-26T03:04:16;6.30;99.90
22112;DHT22;11222;50.872;4.312;2024-02-26T03:06:41;6.20;99.90
22112;DHT22;11222;50.872;4.312;2024-02-26T03:09:07;6.30;99.90
22112;DHT22;11222;50.872;4.312;2024-02-26T03:11:32;6.30;99.90
22112;DHT22;11222;50.872;4.312;2024-02-26T03:13:58;6.30;99.90
22112;DHT22;11222;50.872;4.312;2024-02-26T03:16:23;6.30;99.90
22112;DHT22;11222;50.872;4.312;2024-02-26T03:18:49;6.30;99.90
22112;DHT22;11222;50.872;4.312;2024-02-26T03:21:14;6.30;99.90
22112;DHT22;11222;50.872;4.312;2024-02-26T03:23:40;6.30;99.90
22112;DHT22;11222;50.872;4.312;2024-02-26T03:26:05;6.30;99.90
22112;DHT22;11222;50.872;4.312;2024-02-26T03:28:31;6.30;99.90
22112;DHT22;11222;50.872;4.312;2024-02-26T03:31:01;6.30;99.90
22112;DHT22;11222;50.872;4.312;2024-02-26T03:33:27;6.30;99.90
22112;DHT22;11222;50.872;4.312;2024-02-26T03:35:53;6.30;99.90
22112;DHT22;11222;50.872;4.312;2024-02-26T03:38:18;6.20;99.90
22112;DHT22;11222;50.872;4.312;2024-02-26T03:40:44;6.20;99.90
22112;DHT22;11222;50.872;4.312;2024-02-26T03:43:09;6.30;99.90
22112;DHT22;11222;50.872;4.312;2024-02-26T03:45:35;6.30;99.90
22112;DHT22;11222;50.872;4.312;2024-02-26T03:48:00;6.20;99.90
22112;DHT22;11222;50.872;4.312;2024-02-26T03:50:26;6.30;99.90
22112;DHT22;11222;50.872;4.312;2024-02-26T03:52:51;6.30;99.90
22112;DHT22;11222;50.872;4.312;2024-02-26T03:55:17;6.30;99.90
22112;DHT22;11222;50.872;4.312;2024-02-26T03:57:46;6.20;99.90
22112;DHT22;11222;50.872;4.312;2024-02-26T04:00:12;6.30;99.90
22112;DHT22;11222;50.872;4.312;2024-02-26T04:02:37;6.20;99.90
22112;DHT22;11222;50.872;4.312;2024-02-26T04:05:03;6.20;99.90
22112;DHT22;11222;50.872;4.312;2024-02-26T04:07:29;6.20;99.90
22112;DHT22;11222;50.872;4.312;2024-02-26T04:09:54;6.20;99.90
22112;DHT22;11222;50.872;4.312;2024-02-26T04:12:20;6.20;99.90
22112;DHT22;11222;50.872;4.312;2024-02-26T04:14:45;6.20;99.90
22112;DHT22;11222;50.872;4.312;2024-02-26T04:17:11;6.10;99.90
22112;DHT22;11222;50.872;4.312;2024-02-26T04:19:36;6.20;99.90
22112;DHT22;11222;50.872;4.312;2024-02-26T04:22:02;6.20;99.90
22112;DHT22;11222;50.872;4.312;2024-02-26T04:24:27;6.10;99.90
22112;DHT22;11222;50.872;4.312;2024-02-26T04:26:53;6.10;99.90
22112;DHT22;11222;50.872;4.312;2024-02-26T04:29:19;6.10;99.90
22112;DHT22;11222;50.872;4.312;2024-02-26T04:31:44;6.10;99.90
22112;DHT22;11222;50.872;4.312;2024-02-26T04:34:11;6.10;99.90
22112;DHT22;11222;50.872;4.312;2024-02-26T04:36:36;6.00;99.90
22112;DHT22;11222;50.872;4.312;2024-02-26T04:39:02;6.10;99.90
22112;DHT22;11222;50.872;4.312;2024-02-26T04:41:28;6.10;99.90
22112;DHT22;11222;50.872;4.312;2024-02-26T04:43:53;6.00;99.90
22112;DHT22;11222;50.872;4.312;2024-02-26T04:46:19;6.00;99.90
22112;DHT22;11222;50.872;4.312;2024-02-26T04:48:47;6.00;99.90
22112;DHT22;11222;50.872;4.312;2024-02-26T04:51:12;6.00;99.90
22112;DHT22;11222;50.872;4.312;2024-02-26T04:53:38;6.10;99.90
22112;DHT22;11222;50.872;4.312;2024-02-26T04:56:04;6.10;99.90
22112;DHT22;11222;50.872;4.312;2024-02-26T04:58:29;6.10;99.90
22112;DHT22;11222;50.872;4.312;2024-02-26T05:00:55;6.10;99.90
22112;DHT22;11222;50.872;4.312;2024-02-26T05:03:21;6.10;99.90
22112;DHT22;11222;50.872;4.312;2024-02-26T05:05:46;6.10;99.90
22112;DHT22;11222;50.872;4.312;2024-02-26T05:08:12;6.10;99.90
22112;DHT22;11222;50.872;4.312;2024-02-26T05:10:38;6.10;99.90
22112;DHT22;11222;50.872;4.312;2024-02-26T05:13:05;6.10;99.90
22112;DHT22;11222;50.872;4.312;2024-02-26T05:15:30;6.10;99.90
22112;DHT22;11222;50.872;4.312;2024-02-26T05:17:56;6.10;99.90
22112;DHT22;11222;50.872;4.312;2024-02-26T05:20:22;6.10;99.90
22112;DHT22;11222;50.872;4.312;2024-02-26T05:22:47;6.10;99.90
22112;DHT22;11222;50.872;4.312;2024-02-26T05:25:16;6.10;99.90
22112;DHT22;11222;50.872;4.312;2024-02-26T05:27:42;6.10;99.90
22112;DHT22;11222;50.872;4.312;2024-02-26T05:30:08;6.10;99.90
22112;DHT22;11222;50.872;4.312;2024-02-26T05:32:34;6.10;99.90
22112;DHT22;11222;50.872;4.312;2024-02-26T05:35:00;6.10;99.90
22112;DHT22;11222;50.872;4.312;2024-02-26T05:37:25;6.10;99.90
22112;DHT22;11222;50.872;4.312;2024-02-26T05:39:51;6.10;99.90
22112;DHT22;11222;50.872;4.312;2024-02-26T05:42:17;6.10;99.90
22112;DHT22;11222;50.872;4.312;2024-02-26T05:44:42;6.10;99.90
22112;DHT22;11222;50.872;4.312;2024-02-26T05:47:08;6.10;99.90
22112;DHT22;11222;50.872;4.312;2024-02-26T05:49:33;6.10;99.90
22112;DHT22;11222;50.872;4.312;2024-02-26T05:51:59;6.10;99.90
22112;DHT22;11222;50.872;4.312;2024-02-26T05:54:25;6.10;99.90
22112;DHT22;11222;50.872;4.312;2024-02-26T05:56:50;6.10;99.90
22112;DHT22;11222;50.872;4.312;2024-02-26T05:59:16;6.10;99.90
22112;DHT22;11222;50.872;4.312;2024-02-26T06:01:41;6.10;99.90
22112;DHT22;11222;50.872;4.312;2024-02-26T06:04:07;6.10;99.90
22112;DHT22;11222;50.872;4.312;2024-02-26T06:06:32;6.10;99.90
22112;DHT22;11222;50.872;4.312;2024-02-26T06:08:58;6.10;99.90
22112;DHT22;11222;50.872;4.312;2024-02-26T06:11:23;6.10;99.90
22112;DHT22;11222;50.872;4.312;2024-02-26T06:13:49;6.00;99.90
22112;DHT22;11222;50.872;4.312;2024-02-26T06:16:15;6.10;99.90
22112;DHT22;11222;50.872;4.312;2024-02-26T06:18:41;6.10;99.90
22112;DHT22;11222;50.872;4.312;2024-02-26T06:21:10;6.10;99.90
22112;DHT22;11222;50.872;4.312;2024-02-26T06:23:36;6.10;99.90
22112;DHT22;11222;50.872;4.312;2024-02-26T06:26:02;6.00;99.90
22112;DHT22;11222;50.872;4.312;2024-02-26T06:28:27;6.10;99.90
22112;DHT22;11222;50.872;4.312;2024-02-26T06:30:55;6.10;99.90
22112;DHT22;11222;50.872;4.312;2024-02-26T06:33:21;6.10;99.90
22112;DHT22;11222;50.872;4.312;2024-02-26T06:35:46;6.10;99.90
22112;DHT22;11222;50.872;4.312;2024-02-26T06:38:12;6.10;99.90
22112;DHT22;11222;50.872;4.312;2024-02-26T06:40:39;6.00;99.90
22112;DHT22;11222;50.872;4.312;2024-02-26T06:43:04;6.00;99.90
22112;DHT22;11222;50.872;4.312;2024-02-26T06:45:30;6.00;99.90
22112;DHT22;11222;50.872;4.312;2024-02-26T06:47:56;6.00;99.90
22112;DHT22;11222;50.872;4.312;2024-02-26T06:50:21;6.10;99.90
22112;DHT22;11222;50.872;4.312;2024-02-26T06:52:47;6.00;99.90
22112;DHT22;11222;50.872;4.312;2024-02-26T06:55:13;6.00;99.90
22112;DHT22;11222;50.872;4.312;2024-02-26T06:57:38;6.00;99.90
22112;DHT22;11222;50.872;4.312;2024-02-26T07:00:04;6.10;99.90
22112;DHT22;11222;50.872;4.312;2024-02-26T07:02:30;6.00;99.90
22112;DHT22;11222;50.872;4.312;2024-02-26T07:04:56;6.00;99.90
22112;DHT22;11222;50.872;4.312;2024-02-26T07:07:26;6.10;99.90
22112;DHT22;11222;50.872;4.312;2024-02-26T07:09:52;6.00;99.90
22112;DHT22;11222;50.872;4.312;2024-02-26T07:12:17;6.10;99.90
22112;DHT22;11222;50.872;4.312;2024-02-26T07:14:44;6.10;99.90
22112;DHT22;11222;50.872;4.312;2024-02-26T07:17:11;6.10;99.90
22112;DHT22;11222;50.872;4.312;2024-02-26T07:19:36;6.10;99.90
22112;DHT22;11222;50.872;4.312;2024-02-26T07:22:02;6.10;99.90
22112;DHT22;11222;50.872;4.312;2024-02-26T07:24:27;6.10;99.90
22112;DHT22;11222;50.872;4.312;2024-02-26T07:26:53;6.10;99.90
22112;DHT22;11222;50.872;4.312;2024-02-26T07:29:20;6.00;99.90
22112;DHT22;11222;50.872;4.312;2024-02-26T07:31:46;6.00;99.90
22112;DHT22;11222;50.872;4.312;2024-02-26T07:34:12;6.10;99.90
22112;DHT22;11222;50.872;4.312;2024-02-26T07:36:38;6.10;99.90
22112;DHT22;11222;50.872;4.312;2024-02-26T07:39:03;6.10;99.90
22112;DHT22;11222;50.872;4.312;2024-02-26T07:41:29;6.00;99.90
22112;DHT22;11222;50.872;4.312;2024-02-26T07:43:54;6.10;99.90
22112;DHT22;11222;50.872;4.312;2024-02-26T07:46:20;6.10;99.90
22112;DHT22;11222;50.872;4.312;2024-02-26T07:48:45;6.00;99.90
22112;DHT22;11222;50.872;4.312;2024-02-26T07:51:14;6.00;99.90
22112;DHT22;11222;50.872;4.312;2024-02-26T07:53:40;6.10;99.90
22112;DHT22;11222;50.872;4.312;2024-02-26T07:56:07;6.00;99.90
22112;DHT22;11222;50.872;4.312;2024-02-26T07:58:34;6.00;99.90
22112;DHT22;11222;50.872;4.312;2024-02-26T08:00:59;6.00;99.90
22112;DHT22;11222;50.872;4.312;2024-02-26T08:03:25;6.00;99.90
22112;DHT22;11222;50.872;4.312;2024-02-26T08:05:51;6.00;99.90
22112;DHT22;11222;50.872;4.312;2024-02-26T08:08:16;6.00;99.90
22112;DHT22;11222;50.872;4.312;2024-02-26T08:10:42;6.10;99.90
22112;DHT22;11222;50.872;4.312;2024-02-26T08:13:07;6.00;99.90
22112;DHT22;11222;50.872;4.312;2024-02-26T08:15:33;6.00;99.90
22112;DHT22;11222;50.872;4.312;2024-02-26T08:18:00;6.10;99.90
22112;DHT22;11222;50.872;4.312;2024-02-26T08:20:28;6.00;99.90
22112;DHT22;11222;50.872;4.312;2024-02-26T08:22:53;6.00;99.90
22112;DHT22;11222;50.872;4.312;2024-02-26T08:25:19;6.00;99.90
22112;DHT22;11222;50.872;4.312;2024-02-26T08:27:44;6.10;99.90
22112;DHT22;11222;50.872;4.312;2024-02-26T08:30:10;6.10;99.90
22112;DHT22;11222;50.872;4.312;2024-02-26T08:32:38;6.10;99.90
22112;DHT22;11222;50.872;4.312;2024-02-26T08:35:04;6.10;99.90
22112;DHT22;11222;50.872;4.312;2024-02-26T08:37:30;6.10;99.90
22112;DHT22;11222;50.872;4.312;2024-02-26T08:39:55;6.10;99.90
22112;DHT22;11222;50.872;4.312;2024-02-26T08:42:21;6.10;99.90
22112;DHT22;11222;50.872;4.312;2024-02-26T08:44:49;6.10;99.90
22112;DHT22;11222;50.872;4.312;2024-02-26T08:47:15;6.10;99.90
22112;DHT22;11222;50.872;4.312;2024-02-26T08:49:46;6.10;99.90
22112;DHT22;11222;50.872;4.312;2024-02-26T08:52:12;6.10;99.90
22112;DHT22;11222;50.872;4.312;2024-02-26T08:54:37;6.10;99.90
22112;DHT22;11222;50.872;4.312;2024-02-26T08:57:03;6.20;99.90
22112;DHT22;11222;50.872;4.312;2024-02-26T08:59:29;6.10;99.90
22112;DHT22;11222;50.872;4.312;2024-02-26T09:01:54;6.20;99.90
22112;DHT22;11222;50.872;4.312;2024-02-26T09:04:20;6.20;99.90
22112;DHT22;11222;50.872;4.312;2024-02-26T09:06:46;6.10;99.90
22112;DHT22;11222;50.872;4.312;2024-02-26T09:09:11;6.10;99.90
22112;DHT22;11222;50.872;4.312;2024-02-26T09:11:37;6.20;99.90
22112;DHT22;11222;50.872;4.312;2024-02-26T09:14:02;6.20;99.90
22112;DHT22;11222;50.872;4.312;2024-02-26T09:16:29;6.20;99.90
22112;DHT22;11222;50.872;4.312;2024-02-26T09:18:54;6.10;99.90
22112;DHT22;11222;50.872;4.312;2024-02-26T09:21:20;6.20;99.90
22112;DHT22;11222;50.872;4.312;2024-02-26T09:23:52;6.10;99.90
22112;DHT22;11222;50.872;4.312;2024-02-26T09:26:17;6.10;99.90
22112;DHT22;11222;50.872;4.312;2024-02-26T09:28:43;6.10;99.90
22112;DHT22;11222;50.872;4.312;2024-02-26T09:31:09;6.10;99.90
22112;DHT22;11222;50.872;4.312;2024-02-26T09:33:34;6.00;99.90
22112;DHT22;11222;50.872;4.312;2024-02-26T09:36:00;6.00;99.90
22112;DHT22;11222;50.872;4.312;2024-02-26T09:38:26;6.10;99.90
22112;DHT22;11222;50.872;4.312;2024-02-26T09:40:52;6.10;99.90
22112;DHT22;11222;50.872;4.312;2024-02-26T09:43:19;6.10;99.90
22112;DHT22;11222;50.872;4.312;2024-02-26T09:45:46;6.00;99.90
22112;DHT22;11222;50.872;4.312;2024-02-26T09:48:12;6.00;99.90
22112;DHT22;11222;50.872;4.312;2024-02-26T09:50:39;6.00;99.90
22112;DHT22;11222;50.872;4.312;2024-02-26T09:53:05;6.00;99.90
22112;DHT22;11222;50.872;4.312;2024-02-26T09:55:35;6.00;99.90
22112;DHT22;11222;50.872;4.312;2024-02-26T09:58:01;6.00;99.90
22112;DHT22;11222;50.872;4.312;2024-02-26T10:00:27;6.00;99.90
22112;DHT22;11222;50.872;4.312;2024-02-26T10:02:57;6.00;99.90
22112;DHT22;11222;50.872;4.312;2024-02-26T10:05:23;6.00;99.90
22112;DHT22;11222;50.872;4.312;2024-02-26T10:07:50;6.00;99.90
22112;DHT22;11222;50.872;4.312;2024-02-26T10:10:16;6.00;99.90
22112;DHT22;11222;50.872;4.312;2024-02-26T10:12:43;6.00;99.90
22112;DHT22;11222;50.872;4.312;2024-02-26T10:15:08;6.00;99.90
22112;DHT22;11222;50.872;4.312;2024-02-26T10:17:34;6.00;99.90
22112;DHT22;11222;50.872;4.312;2024-02-26T10:20:20;6.00;99.90
22112;DHT22;11222;50.872;4.312;2024-02-26T10:22:48;6.00;99.90
22112;DHT22;11222;50.872;4.312;2024-02-26T10:25:14;6.00;99.90
22112;DHT22;11222;50.872;4.312;2024-02-26T10:27:40;6.00;99.90
22112;DHT22;11222;50.872;4.312;2024-02-26T10:30:15;5.90;99.90
22112;DHT22;11222;50.872;4.312;2024-02-26T10:32:43;6.00;99.90
22112;DHT22;11222;50.872;4.312;2024-02-26T10:35:08;6.00;99.90
22112;DHT22;11222;50.872;4.312;2024-02-26T10:37:34;6.00;99.90
22112;DHT22;11222;50.872;4.312;2024-02-26T10:39:59;6.00;99.90
22112;DHT22;11222;50.872;4.312;2024-02-26T10:42:28;6.00;99.90
22112;DHT22;11222;50.872;4.312;2024-02-26T10:44:53;6.00;99.90
22112;DHT22;11222;50.872;4.312;2024-02-26T10:47:19;5.90;99.90
22112;DHT22;11222;50.872;4.312;2024-02-26T10:49:45;5.90;99.90
22112;DHT22;11222;50.872;4.312;2024-02-26T10:52:11;5.90;99.90
22112;DHT22;11222;50.872;4.312;2024-02-26T10:54:37;6.00;99.90
22112;DHT22;11222;50.872;4.312;2024-02-26T10:57:04;5.90;99.90
22112;DHT22;11222;50.872;4.312;2024-02-26T10:59:30;5.80;99.90
22112;DHT22;11222;50.872;4.312;2024-02-26T11:01:58;5.90;99.90
22112;DHT22;11222;50.872;4.312;2024-02-26T11:04:24;5.90;99.90
22112;DHT22;11222;50.872;4.312;2024-02-26T11:06:52;5.90;99.90
22112;DHT22;11222;50.872;4.312;2024-02-26T11:09:20;5.90;99.90
22112;DHT22;11222;50.872;4.312;2024-02-26T11:11:46;5.80;99.90
22112;DHT22;11222;50.872;4.312;2024-02-26T11:14:12;5.90;99.90
22112;DHT22;11222;50.872;4.312;2024-02-26T11:16:38;5.80;99.90
22112;DHT22;11222;50.872;4.312;2024-02-26T11:19:05;5.80;99.90
22112;DHT22;11222;50.872;4.312;2024-02-26T11:21:31;5.80;99.90
22112;DHT22;11222;50.872;4.312;2024-02-26T11:24:05;5.70;99.90
22112;DHT22;11222;50.872;4.312;2024-02-26T11:26:31;5.70;99.90
22112;DHT22;11222;50.872;4.312;2024-02-26T11:28:56;5.70;99.90
22112;DHT22;11222;50.872;4.312;2024-02-26T11:31:24;5.60;99.90
22112;DHT22;11222;50.872;4.312;2024-02-26T11:33:53;5.60;99.90
22112;DHT22;11222;50.872;4.312;2024-02-26T11:36:19;5.60;99.90
22112;DHT22;11222;50.872;4.312;2024-02-26T11:38:46;5.60;99.90
22112;DHT22;11222;50.872;4.312;2024-02-26T11:41:15;5.60;99.90
22112;DHT22;11222;50.872;4.312;2024-02-26T11:46:29;5.60;99.90
22112;DHT22;11222;50.872;4.312;2024-02-26T11:48:56;5.60;99.90
22112;DHT22;11222;50.872;4.312;2024-02-26T11:51:25;5.60;99.90
22112;DHT22;11222;50.872;4.312;2024-02-26T11:53:52;5.60;99.90
22112;DHT22;11222;50.872;4.312;2024-02-26T12:01:40;5.70;99.90
22112;DHT22;11222;50.872;4.312;2024-02-26T12:04:27;5.70;99.90
22112;DHT22;11222;50.872;4.312;2024-02-26T12:06:53;5.70;99.90
22112;DHT22;11222;50.872;4.312;2024-02-26T12:09:34;5.70;99.90
22112;DHT22;11222;50.872;4.312;2024-02-26T12:12:02;5.70;99.90
22112;DHT22;11222;50.872;4.312;2024-02-26T12:14:27;5.70;99.90
22112;DHT22;11222;50.872;4.312;2024-02-26T12:16:55;5.80;99.90
22112;DHT22;11222;50.872;4.312;2024-02-26T12:19:21;5.80;99.90
22112;DHT22;11222;50.872;4.312;2024-02-26T12:21:48;5.80;99.90
22112;DHT22;11222;50.872;4.312;2024-02-26T12:24:16;5.80;99.90
22112;DHT22;11222;50.872;4.312;2024-02-26T12:26:43;5.80;99.90
22112;DHT22;11222;50.872;4.312;2024-02-26T12:29:09;5.80;99.90
22112;DHT22;11222;50.872;4.312;2024-02-26T12:31:36;5.80;99.90
22112;DHT22;11222;50.872;4.312;2024-02-26T12:34:04;5.80;99.90
22112;DHT22;11222;50.872;4.312;2024-02-26T12:36:30;5.90;99.90
22112;DHT22;11222;50.872;4.312;2024-02-26T12:38:56;5.90;99.90
22112;DHT22;11222;50.872;4.312;2024-02-26T12:41:22;5.80;99.90
22112;DHT22;11222;50.872;4.312;2024-02-26T12:43:47;5.90;99.90
22112;DHT22;11222;50.872;4.312;2024-02-26T12:46:13;5.90;99.90
22112;DHT22;11222;50.872;4.312;2024-02-26T12:48:43;5.90;99.90
22112;DHT22;11222;50.872;4.312;2024-02-26T12:51:11;5.90;99.90
22112;DHT22;11222;50.872;4.312;2024-02-26T12:53:37;5.80;99.90
22112;DHT22;11222;50.872;4.312;2024-02-26T12:56:03;5.80;99.90
22112;DHT22;11222;50.872;4.312;2024-02-26T12:58:29;5.80;99.90
22112;DHT22;11222;50.872;4.312;2024-02-26T13:00:54;5.80;99.90
22112;DHT22;11222;50.872;4.312;2024-02-26T13:03:21;5.80;99.90
22112;DHT22;11222;50.872;4.312;2024-02-26T13:05:47;5.90;99.90
22112;DHT22;11222;50.872;4.312;2024-02-26T13:08:22;5.80;99.90
22112;DHT22;11222;50.872;4.312;2024-02-26T13:10:48;5.70;99.90
22112;DHT22;11222;50.872;4.312;2024-02-26T13:13:17;5.80;99.90
22112;DHT22;11222;50.872;4.312;2024-02-26T13:15:43;5.70;99.90
22112;DHT22;11222;50.872;4.312;2024-02-26T13:18:12;5.80;99.90
22112;DHT22;11222;50.872;4.312;2024-02-26T13:20:38;5.70;99.90
22112;DHT22;11222;50.872;4.312;2024-02-26T13:23:06;5.60;99.90
22112;DHT22;11222;50.872;4.312;2024-02-26T13:25:32;5.70;99.90
22112;DHT22;11222;50.872;4.312;2024-02-26T13:28:16;5.60;99.90
22112;DHT22;11222;50.872;4.312;2024-02-26T13:30:55;5.60;99.90
22112;DHT22;11222;50.872;4.312;2024-02-26T13:33:23;5.60;99.90
22112;DHT22;11222;50.872;4.312;2024-02-26T13:35:49;5.60;99.90
22112;DHT22;11222;50.872;4.312;2024-02-26T13:38:15;5.60;99.90
22112;DHT22;11222;50.872;4.312;2024-02-26T13:40:40;5.60;99.90
22112;DHT22;11222;50.872;4.312;2024-02-26T13:43:06;5.60;99.90
22112;DHT22;11222;50.872;4.312;2024-02-26T13:45:33;5.60;99.90
22112;DHT22;11222;50.872;4.312;2024-02-26T13:48:02;5.60;99.90
22112;DHT22;11222;50.872;4.312;2024-02-26T13:50:28;5.70;99.90
22112;DHT22;11222;50.872;4.312;2024-02-26T13:52:54;5.60;99.90
22112;DHT22;11222;50.872;4.312;2024-02-26T13:55:21;5.60;99.90
22112;DHT22;11222;50.872;4.312;2024-02-26T13:57:48;5.70;99.90
22112;DHT22;11222;50.872;4.312;2024-02-26T14:00:14;5.60;99.90
22112;DHT22;11222;50.872;4.312;2024-02-26T14:02:40;5.70;99.90
22112;DHT22;11222;50.872;4.312;2024-02-26T14:05:05;5.70;99.90
22112;DHT22;11222;50.872;4.312;2024-02-26T14:07:31;5.70;99.90
22112;DHT22;11222;50.872;4.312;2024-02-26T14:09:58;5.80;99.90
22112;DHT22;11222;50.872;4.312;2024-02-26T14:12:23;5.80;99.90
22112;DHT22;11222;50.872;4.312;2024-02-26T14:14:49;5.80;99.90
22112;DHT22;11222;50.872;4.312;2024-02-26T14:17:14;5.80;99.90
22112;DHT22;11222;50.872;4.312;2024-02-26T14:19:40;5.80;99.90
22112;DHT22;11222;50.872;4.312;2024-02-26T14:22:12;5.90;99.90
22112;DHT22;11222;50.872;4.312;2024-02-26T14:24:37;5.90;99.90
22112;DHT22;11222;50.872;4.312;2024-02-26T14:27:03;5.90;99.90
22112;DHT22;11222;50.872;4.312;2024-02-26T14:29:29;6.00;99.90
22112;DHT22;11222;50.872;4.312;2024-02-26T14:31:54;5.90;99.90
22112;DHT22;11222;50.872;4.312;2024-02-26T14:34:21;6.00;99.90
22112;DHT22;11222;50.872;4.312;2024-02-26T14:36:47;6.00;99.90
22112;DHT22;11222;50.872;4.312;2024-02-26T14:39:13;5.90;99.90
22112;DHT22;11222;50.872;4.312;2024-02-26T14:41:39;5.90;99.90
22112;DHT22;11222;50.872;4.312;2024-02-26T14:44:05;5.90;99.90
22112;DHT22;11222;50.872;4.312;2024-02-26T14:46:30;6.00;99.90
22112;DHT22;11222;50.872;4.312;2024-02-26T14:48:56;6.00;99.90
22112;DHT22;11222;50.872;4.312;2024-02-26T14:51:23;6.00;99.90
22112;DHT22;11222;50.872;4.312;2024-02-26T14:53:48;6.00;99.90
22112;DHT22;11222;50.872;4.312;2024-02-26T14:56:14;6.10;99.90
22112;DHT22;11222;50.872;4.312;2024-02-26T14:58:40;6.00;99.90
22112;DHT22;11222;50.872;4.312;2024-02-26T15:01:05;6.10;99.90
22112;DHT22;11222;50.872;4.312;2024-02-26T15:03:31;6.10;99.90
22112;DHT22;11222;50.872;4.312;2024-02-26T15:05:56;6.10;99.90
22112;DHT22;11222;50.872;4.312;2024-02-26T15:08:22;6.10;99.90
22112;DHT22;11222;50.872;4.312;2024-02-26T15:10:47;6.00;99.90
22112;DHT22;11222;50.872;4.312;2024-02-26T15:13:13;6.10;99.90
22112;DHT22;11222;50.872;4.312;2024-02-26T15:15:40;6.10;99.90
22112;DHT22;11222;50.872;4.312;2024-02-26T15:18:06;6.10;99.90
22112;DHT22;11222;50.872;4.312;2024-02-26T15:20:32;6.10;99.90
22112;DHT22;11222;50.872;4.312;2024-02-26T15:22:58;6.00;99.90
22112;DHT22;11222;50.872;4.312;2024-02-26T15:25:23;6.00;99.90
22112;DHT22;11222;50.872;4.312;2024-02-26T15:27:49;6.00;99.90
22112;DHT22;11222;50.872;4.312;2024-02-26T15:30:14;6.00;99.90
22112;DHT22;11222;50.872;4.312;2024-02-26T15:32:41;6.10;99.90
22112;DHT22;11222;50.872;4.312;2024-02-26T15:35:08;6.00;99.90
22112;DHT22;11222;50.872;4.312;2024-02-26T15:37:35;6.00;99.90
22112;DHT22;11222;50.872;4.312;2024-02-26T15:40:00;6.00;99.90
22112;DHT22;11222;50.872;4.312;2024-02-26T15:42:26;6.00;99.90
22112;DHT22;11222;50.872;4.312;2024-02-26T15:44:51;6.00;99.90
22112;DHT22;11222;50.872;4.312;2024-02-26T15:47:17;6.00;99.90